Terminal Aerodrome Forecast
Issued by NWS Louisville, KY

Home | Current Version | Previous Version | Text Only | Print | Product List | Glossary On
Versions: 1 2 3 4 5 6 7 8 9 10 11 12 13 14 15 16 17 18 19
000
FTUS43 KLMK 222320
TAFBWG
TAF
KBWG 222320Z 2300/2324 08009KT 5SM -RA BR OVC040
     FM230400 10012KT 5SM -RA BR OVC035 WS019/11048KT
     FM230800 11015KT 5SM -RA BR OVC015 WS020/11044KT
     FM231300 12012KT P6SM VCSH BKN020=

USA.gov is the U.S. government's official web portal to all federal, state and local government web resources and services.